Time;durP1;ratioP1;P1;durP2;ratioP2;P2;SDS_P1;SDS_P2;PMS_P1;PMS_P2;Temp;Humidity;BMP_temperature;BMP_pressure;BME280_temperature;BME280_humidity;BME280_pressure;Samples;Min_cycle;Max_cycle;Signal;HPM_P1;HPM_P2
2021/12/07 00:01:01;;;;;;;9.87;2.27;;;21.90;99.90;;;;;;5067115;28;20195;-70
2021/12/07 00:03:29;;;;;;;6.90;2.43;;;22.30;99.90;;;;;;5070718;28;20183;-71
2021/12/07 00:05:56;;;;;;;6.43;2.07;;;22.80;99.90;;;;;;5067541;28;20219;-71
2021/12/07 00:08:25;;;;;;;4.63;1.53;;;23.20;99.90;;;;;;5065511;28;20630;-71
2021/12/07 00:10:52;;;;;;;6.37;1.47;;;23.10;99.90;;;;;;5066453;28;20244;-71
2021/12/07 00:13:21;;;;;;;10.27;1.80;;;23.50;99.90;;;;;;5065254;28;20187;-71
2021/12/07 00:15:49;;;;;;;5.43;1.70;;;23.60;99.90;;;;;;5069489;28;20198;-72
2021/12/07 00:18:16;;;;;;;5.30;1.63;;;23.70;99.90;;;;;;5066631;28;20347;-71
2021/12/07 00:20:44;;;;;;;6.63;2.00;;;23.60;99.90;;;;;;5067541;28;20195;-70
2021/12/07 00:23:11;;;;;;;7.97;1.97;;;23.50;99.90;;;;;;5070036;28;20256;-70
2021/12/07 00:25:39;;;;;;;6.33;1.90;;;23.20;99.90;;;;;;5068943;28;20270;-70
2021/12/07 00:28:06;;;;;;;7.20;1.63;;;23.20;99.90;;;;;;5069515;28;20198;-70
2021/12/07 00:30:36;;;;;;;6.40;1.70;;;23.30;99.90;;;;;;5070643;28;20187;-70
2021/12/07 00:33:08;;;;;;;4.63;1.70;;;23.60;99.90;;;;;;5069209;28;20340;-69
2021/12/07 00:35:36;;;;;;;5.30;1.80;;;23.80;99.90;;;;;;5069301;28;20191;-71
2021/12/07 00:38:08;;;;;;;6.47;1.53;;;24.10;99.90;;;;;;5071696;28;20633;-70
2021/12/07 00:40:36;;;;;;;7.87;1.80;;;24.50;99.90;;;;;;5070998;28;20183;-70
2021/12/07 00:43:04;;;;;;;4.33;1.73;;;24.40;99.90;;;;;;5067707;28;20286;-71
2021/12/07 00:45:33;;;;;;;4.07;1.73;;;24.50;99.90;;;;;;5066856;28;20199;-70
2021/12/07 00:48:03;;;;;;;5.30;1.50;;;24.60;99.90;;;;;;5071071;28;20191;-71
2021/12/07 00:50:32;;;;;;;2.63;1.40;;;24.70;99.90;;;;;;5070214;28;20600;-70
2021/12/07 00:53:02;;;;;;;8.30;2.57;;;24.90;99.90;;;;;;5068498;28;20316;-72
2021/12/07 00:55:33;;;;;;;6.03;1.97;;;25.30;99.90;;;;;;5069337;28;20199;-69
2021/12/07 00:58:06;;;;;;;4.07;1.70;;;25.20;99.90;;;;;;5051563;28;20289;-69
2021/12/07 01:00:33;;;;;;;3.70;1.27;;;25.30;99.90;;;;;;5070293;28;20566;-69
2021/12/07 01:03:01;;;;;;;6.63;1.60;;;25.40;99.90;;;;;;5070344;28;20202;-70
2021/12/07 01:05:31;;;;;;;5.60;1.17;;;25.50;99.90;;;;;;5069186;28;20274;-69
2021/12/07 01:08:17;;;;;;;4.60;1.33;;;25.60;99.90;;;;;;5069223;28;20194;-69
2021/12/07 01:24:42;;;;;;;3.67;1.17;;;26.00;99.90;;;;;;5068146;28;20546;-68
2021/12/07 01:27:13;;;;;;;4.10;1.30;;;26.20;99.90;;;;;;5068338;28;20191;-70
2021/12/07 01:29:43;;;;;;;2.60;1.07;;;26.10;99.90;;;;;;5071136;28;20205;-69
2021/12/07 01:32:29;;;;;;;3.27;1.13;;;26.10;99.90;;;;;;5068882;28;20223;-70
2021/12/07 02:01:57;;;;;;;6.87;1.80;;;28.10;99.90;;;;;;5067921;28;20209;-68
2021/12/07 02:04:24;;;;;;;6.53;1.70;;;27.70;99.90;;;;;;5068563;28;20184;-68
2021/12/07 02:06:53;;;;;;;5.33;1.40;;;28.00;99.90;;;;;;5069062;28;20187;-70
2021/12/07 02:09:20;;;;;;;6.67;1.60;;;28.40;99.90;;;;;;5067715;28;20607;-71
2021/12/07 02:11:50;;;;;;;7.77;1.80;;;28.60;99.90;;;;;;5070107;28;20629;-71
2021/12/07 02:14:18;;;;;;;5.77;1.50;;;28.60;99.90;;;;;;5069457;28;20219;-71
2021/12/07 02:16:52;;;;;;;4.70;1.47;;;28.90;99.90;;;;;;5068471;28;20670;-72
2021/12/07 02:19:20;;;;;;;4.57;1.60;;;29.20;99.90;;;;;;5069807;28;20326;-72
2021/12/07 02:21:47;;;;;;;4.53;1.40;;;29.20;99.90;;;;;;5069259;28;20179;-71
2021/12/07 02:24:15;;;;;;;5.57;1.50;;;29.20;99.90;;;;;;5070337;28;20259;-73
2021/12/07 02:26:42;;;;;;;3.73;1.63;;;29.10;99.90;;;;;;5069053;28;20215;-73
2021/12/07 02:29:10;;;;;;;8.40;1.87;;;29.40;99.90;;;;;;5063187;28;20186;-70
2021/12/07 02:31:38;;;;;;;6.87;1.70;;;29.50;99.90;;;;;;5069070;28;20187;-73
2021/12/07 02:34:06;;;;;;;11.47;2.63;;;29.60;99.90;;;;;;5068782;28;20237;-72
2021/12/07 02:36:35;;;;;;;11.93;2.40;;;29.60;99.90;;;;;;5060411;28;20195;-73
2021/12/07 02:39:06;;;;;;;7.00;2.57;;;29.40;99.90;;;;;;5067897;28;20262;-70
2021/12/07 02:41:34;;;;;;;6.50;2.57;;;29.50;99.90;;;;;;5067632;28;20643;-73
2021/12/07 02:44:01;;;;;;;9.17;2.20;;;29.50;99.90;;;;;;5070953;28;20206;-71
2021/12/07 02:46:29;;;;;;;4.60;1.87;;;29.30;99.90;;;;;;5071527;28;20241;-70
2021/12/07 02:48:56;;;;;;;7.17;2.30;;;29.20;99.90;;;;;;5071901;28;20199;-71
2021/12/07 02:51:23;;;;;;;12.03;2.70;;;29.30;99.90;;;;;;5070295;28;20221;-69
2021/12/07 02:53:51;;;;;;;11.70;2.23;;;29.30;99.90;;;;;;5071284;28;20227;-71
2021/12/07 02:56:18;;;;;;;8.90;2.33;;;29.00;99.90;;;;;;5073006;28;20731;-70
2021/12/07 02:58:46;;;;;;;6.17;2.40;;;29.20;99.90;;;;;;5071422;28;20229;-70
2021/12/07 03:01:22;;;;;;;8.53;2.33;;;29.20;99.90;;;;;;5069392;28;20179;-70
2021/12/07 03:03:58;;;;;;;8.23;2.00;;;29.20;99.90;;;;;;5069172;28;20636;-71
2021/12/07 03:06:42;;;;;;;8.70;2.53;;;29.20;99.90;;;;;;5069790;28;20191;-71
2021/12/07 03:26:09;;;;;;;7.90;2.10;;;28.50;99.90;;;;;;5072846;28;20186;-69
2021/12/07 03:28:43;;;;;;;8.77;1.93;;;28.20;99.90;;;;;;5071747;28;20187;-71
2021/12/07 03:31:11;;;;;;;7.03;2.10;;;28.00;99.90;;;;;;5069671;28;20180;-71
2021/12/07 03:33:42;;;;;;;5.27;1.83;;;27.90;99.90;;;;;;5069907;28;20180;-72
2021/12/07 03:36:11;;;;;;;8.27;2.00;;;28.00;99.90;;;;;;5070241;28;20195;-70
2021/12/07 03:38:39;;;;;;;6.80;1.70;;;28.30;99.90;;;;;;5070192;28;20713;-70
2021/12/07 03:41:08;;;;;;;9.17;1.93;;;28.40;99.90;;;;;;5069763;28;20175;-70
2021/12/07 03:43:36;;;;;;;7.53;1.87;;;28.90;99.90;;;;;;5069653;28;20190;-69
2021/12/07 03:46:04;;;;;;;6.23;1.83;;;29.20;99.90;;;;;;5070991;28;20187;-71
2021/12/07 03:48:31;;;;;;;5.03;1.60;;;28.90;99.90;;;;;;5067991;28;20237;-71
2021/12/07 03:50:59;;;;;;;7.30;1.87;;;28.70;99.90;;;;;;5066551;28;20241;-70
2021/12/07 03:53:28;;;;;;;2.10;1.10;;;28.70;99.90;;;;;;5066257;28;20230;-70
2021/12/07 03:55:57;;;;;;;6.40;1.70;;;28.40;99.90;;;;;;5067762;28;20197;-70
2021/12/07 03:58:24;;;;;;;6.27;1.70;;;28.40;99.90;;;;;;5069064;28;20664;-69
2021/12/07 04:00:52;;;;;;;4.30;1.30;;;28.40;99.90;;;;;;5065952;28;20219;-72
2021/12/07 04:03:20;;;;;;;4.40;1.20;;;28.40;99.90;;;;;;5069161;28;20179;-68
2021/12/07 04:05:53;;;;;;;3.93;1.10;;;28.30;99.90;;;;;;5067639;28;20195;-69
2021/12/07 04:08:24;;;;;;;8.63;1.63;;;28.60;99.90;;;;;;5069074;28;20866;-70
2021/12/07 04:10:53;;;;;;;4.50;1.53;;;28.30;99.90;;;;;;5067188;28;20197;-69
2021/12/07 04:13:21;;;;;;;11.30;1.70;;;28.80;99.90;;;;;;5069077;28;20186;-72
2021/12/07 04:15:50;;;;;;;6.07;1.60;;;29.00;99.90;;;;;;5068894;28;20195;-70
2021/12/07 04:18:18;;;;;;;4.40;1.67;;;28.90;99.90;;;;;;5067674;28;20296;-72
2021/12/07 04:20:45;;;;;;;7.50;1.80;;;28.50;99.90;;;;;;5065666;28;20191;-70
2021/12/07 04:23:13;;;;;;;6.13;1.70;;;27.90;99.90;;;;;;5067729;28;20187;-69
2021/12/07 04:25:41;;;;;;;9.40;2.07;;;27.40;99.90;;;;;;5070569;28;20190;-70
2021/12/07 04:28:09;;;;;;;6.03;1.80;;;26.70;99.90;;;;;;5068314;28;20183;-70
2021/12/07 04:30:39;;;;;;;7.53;1.67;;;26.20;99.90;;;;;;5069441;28;20282;-72
2021/12/07 04:33:09;;;;;;;7.93;1.80;;;25.90;99.90;;;;;;5070898;28;20175;-71
2021/12/07 04:35:38;;;;;;;6.70;2.20;;;25.70;99.90;;;;;;5071131;28;20629;-70
2021/12/07 04:38:06;;;;;;;6.10;1.70;;;25.60;99.90;;;;;;5067542;28;20667;-69
2021/12/07 04:40:34;;;;;;;6.30;2.20;;;25.50;99.90;;;;;;5070115;28;20544;-72
2021/12/07 04:43:04;;;;;;;4.63;1.47;;;25.30;99.90;;;;;;5068548;28;20652;-71
2021/12/07 04:45:59;;;;;;;9.20;2.70;;;25.00;99.90;;;;;;5070210;28;20241;-70
2021/12/07 04:48:47;;;;;;;15.07;3.27;;;25.10;99.90;;;;;;5071320;28;20339;-68
2021/12/07 04:59:37;;;;;;;11.33;2.57;;;22.20;99.90;;;;;;5041872;28;20264;-67
2021/12/07 05:02:06;;;;;;;2.93;1.50;;;21.50;99.90;;;;;;5068994;28;20192;-66
2021/12/07 05:04:35;;;;;;;5.77;1.83;;;21.20;99.90;;;;;;5069247;28;20186;-63
2021/12/07 05:07:16;;;;;;;4.17;2.00;;;21.30;99.90;;;;;;5070289;28;20187;-65
2021/12/07 05:14:44;;;;;;;14.00;3.20;;;21.50;99.90;;;;;;5067289;28;20184;-65
2021/12/07 05:17:44;;;;;;;11.13;2.97;;;21.30;99.90;;;;;;5068763;28;20221;-65
2021/12/07 05:39:19;;;;;;;11.00;3.60;;;21.70;99.90;;;;;;5070735;28;20229;-65
2021/12/07 05:41:46;;;;;;;6.33;2.27;;;21.60;99.90;;;;;;5068601;28;20187;-65
2021/12/07 05:44:14;;;;;;;8.37;3.00;;;21.60;99.90;;;;;;5064714;28;20217;-65
2021/12/07 05:46:42;;;;;;;9.43;2.50;;;21.60;99.90;;;;;;5067684;28;20698;-68
2021/12/07 05:49:10;;;;;;;6.03;2.67;;;21.60;99.90;;;;;;5052194;28;20649;-66
2021/12/07 05:51:37;;;;;;;10.40;2.87;;;21.60;99.90;;;;;;5065347;28;20309;-67
2021/12/07 05:54:05;;;;;;;8.13;2.47;;;21.70;99.90;;;;;;5069391;28;20227;-67
2021/12/07 05:56:33;;;;;;;8.80;2.53;;;21.70;99.90;;;;;;5067535;28;20569;-69
2021/12/07 05:59:00;;;;;;;9.40;2.53;;;21.70;99.90;;;;;;5068618;28;20276;-70
2021/12/07 06:01:27;;;;;;;6.50;2.40;;;21.70;99.90;;;;;;5069475;28;20210;-69
2021/12/07 06:03:54;;;;;;;5.90;2.70;;;21.70;99.90;;;;;;5064298;28;20202;-69
2021/12/07 06:06:22;;;;;;;9.13;2.80;;;21.80;99.90;;;;;;5067020;28;20211;-70
2021/12/07 06:08:49;;;;;;;7.47;2.40;;;21.80;99.90;;;;;;5068473;28;20190;-67
2021/12/07 06:11:18;;;;;;;6.30;2.60;;;21.80;99.90;;;;;;5068900;28;20199;-68
2021/12/07 06:13:45;;;;;;;8.33;2.60;;;21.80;99.90;;;;;;5068182;28;20556;-67
2021/12/07 06:16:15;;;;;;;9.53;2.87;;;21.70;99.90;;;;;;5069728;28;20191;-68
2021/12/07 06:18:43;;;;;;;8.30;2.70;;;21.80;99.90;;;;;;5066434;28;20260;-67
2021/12/07 06:21:12;;;;;;;11.93;3.03;;;21.80;99.90;;;;;;5073110;28;20191;-67
2021/12/07 06:23:40;;;;;;;8.60;3.60;;;21.70;99.90;;;;;;5071692;28;20187;-67
2021/12/07 06:26:08;;;;;;;11.93;3.10;;;21.70;99.90;;;;;;5070721;28;20240;-66
2021/12/07 06:28:35;;;;;;;8.03;3.00;;;21.70;99.90;;;;;;5056172;28;20194;-66
2021/12/07 06:31:03;;;;;;;8.00;3.60;;;21.60;99.90;;;;;;5073984;28;20668;-67
2021/12/07 06:33:30;;;;;;;11.00;3.20;;;21.60;99.90;;;;;;5075088;28;20186;-68
2021/12/07 06:36:01;;;;;;;10.27;2.70;;;21.60;99.90;;;;;;5073370;28;20240;-68
2021/12/07 06:38:30;;;;;;;8.13;3.13;;;21.60;99.90;;;;;;5073652;28;20574;-68
2021/12/07 06:40:59;;;;;;;9.20;3.17;;;21.60;99.90;;;;;;5066507;28;20206;-67
2021/12/07 06:43:26;;;;;;;8.67;2.90;;;21.50;99.90;;;;;;5070694;28;20228;-71
2021/12/07 06:45:54;;;;;;;8.17;2.80;;;21.50;99.90;;;;;;5065566;28;20195;-68
2021/12/07 06:48:21;;;;;;;8.07;3.40;;;21.50;99.90;;;;;;5073770;28;20183;-67
2021/12/07 06:50:49;;;;;;;8.17;2.67;;;21.60;99.90;;;;;;5071603;28;20175;-68
2021/12/07 06:53:17;;;;;;;9.70;2.53;;;21.60;99.90;;;;;;5074080;28;20695;-69
2021/12/07 06:55:44;;;;;;;6.57;2.50;;;21.60;99.90;;;;;;5074295;28;20191;-67
2021/12/07 06:58:11;;;;;;;5.60;2.90;;;21.70;99.90;;;;;;5070863;28;20218;-66
2021/12/07 07:00:42;;;;;;;9.27;3.57;;;21.70;99.90;;;;;;5074177;28;20187;-69
2021/12/07 07:03:09;;;;;;;8.10;3.20;;;21.80;99.90;;;;;;5073386;28;20922;-68
2021/12/07 07:05:37;;;;;;;6.50;3.13;;;21.80;99.90;;;;;;5073889;28;20228;-67
2021/12/07 07:08:06;;;;;;;8.60;3.70;;;21.70;99.90;;;;;;5071513;28;20187;-67
2021/12/07 07:10:34;;;;;;;14.60;9.40;;;21.70;99.90;;;;;;5072696;28;20601;-68
2021/12/07 07:13:01;;;;;;;8.70;4.20;;;21.70;99.90;;;;;;5071856;28;20187;-67
2021/12/07 07:15:29;;;;;;;5.43;2.70;;;21.80;99.90;;;;;;5068771;28;20167;-68
2021/12/07 07:17:56;;;;;;;6.37;2.53;;;21.80;99.90;;;;;;5071916;28;20676;-72
2021/12/07 07:20:24;;;;;;;4.87;2.80;;;21.70;99.90;;;;;;5074027;28;20645;-68
2021/12/07 07:22:53;;;;;;;8.70;2.47;;;21.70;99.90;;;;;;5072493;28;20202;-68
2021/12/07 07:25:20;;;;;;;4.30;2.30;;;21.80;99.90;;;;;;5072595;28;20576;-67
2021/12/07 07:27:48;;;;;;;6.23;2.17;;;21.80;99.90;;;;;;5071501;28;20183;-67
2021/12/07 07:30:18;;;;;;;6.83;2.13;;;21.70;99.90;;;;;;5070618;28;20203;-68
2021/12/07 07:32:47;;;;;;;7.93;3.83;;;21.70;99.90;;;;;;5071864;28;20511;-68
2021/12/07 07:35:15;;;;;;;5.70;2.83;;;21.70;99.90;;;;;;5073260;28;20212;-68
2021/12/07 07:37:45;;;;;;;4.47;2.40;;;21.70;99.90;;;;;;5072665;28;20175;-67
2021/12/07 07:40:16;;;;;;;8.50;2.73;;;21.60;99.90;;;;;;5070439;28;20227;-68
2021/12/07 07:42:44;;;;;;;7.53;2.70;;;21.60;99.90;;;;;;5055595;28;20542;-66
2021/12/07 07:45:12;;;;;;;11.07;3.23;;;21.60;99.90;;;;;;5070254;28;20683;-68
2021/12/07 07:47:41;;;;;;;3.73;2.57;;;21.80;99.90;;;;;;5068933;28;20190;-68
2021/12/07 07:50:10;;;;;;;5.03;2.57;;;21.80;99.90;;;;;;5072788;28;20186;-68
2021/12/07 07:52:38;;;;;;;4.63;2.17;;;21.80;99.90;;;;;;5071783;28;20241;-65
2021/12/07 07:55:06;;;;;;;6.23;2.30;;;21.70;99.90;;;;;;5070405;28;20313;-69
2021/12/07 07:57:34;;;;;;;4.73;2.37;;;21.60;99.90;;;;;;5072182;28;20194;-68
2021/12/07 08:00:01;;;;;;;3.70;2.03;;;21.60;99.90;;;;;;5070311;28;20234;-69
2021/12/07 08:02:28;;;;;;;4.50;2.30;;;21.60;99.90;;;;;;5070920;28;20629;-68
2021/12/07 08:04:56;;;;;;;3.00;1.67;;;21.60;99.90;;;;;;5071716;28;20187;-70
2021/12/07 08:07:23;;;;;;;3.73;1.60;;;21.60;99.90;;;;;;5072525;28;20233;-69
2021/12/07 08:09:56;;;;;;;4.87;2.27;;;21.50;99.90;;;;;;5071948;28;20190;-69
2021/12/07 08:12:23;;;;;;;5.87;2.50;;;21.60;99.90;;;;;;5071223;28;20182;-67
2021/12/07 08:14:50;;;;;;;3.90;2.47;;;21.50;99.90;;;;;;5072634;28;20191;-68
2021/12/07 08:17:18;;;;;;;3.90;2.50;;;21.50;99.90;;;;;;5072543;28;20652;-68
2021/12/07 08:19:45;;;;;;;4.67;3.00;;;21.50;99.90;;;;;;5065690;28;20218;-68
2021/12/07 08:22:12;;;;;;;12.97;2.57;;;21.50;99.90;;;;;;5072243;28;20183;-68
2021/12/07 08:24:40;;;;;;;4.83;2.20;;;21.40;99.90;;;;;;5072120;28;20205;-69
2021/12/07 08:27:13;;;;;;;4.27;2.10;;;21.30;99.90;;;;;;5070064;28;20703;-68
2021/12/07 08:29:41;;;;;;;4.50;2.00;;;21.20;99.90;;;;;;5071369;28;20179;-67
2021/12/07 08:32:08;;;;;;;4.27;1.93;;;21.20;99.90;;;;;;5065739;28;20187;-67
2021/12/07 08:34:36;;;;;;;7.43;2.30;;;21.20;99.90;;;;;;5069192;28;20189;-68
2021/12/07 08:37:03;;;;;;;6.27;2.40;;;21.20;99.90;;;;;;5071674;28;20187;-68
2021/12/07 08:39:34;;;;;;;7.03;2.33;;;21.20;99.90;;;;;;5065354;28;20215;-68
2021/12/07 08:42:06;;;;;;;5.50;2.47;;;21.20;99.90;;;;;;5069574;28;20183;-68
2021/12/07 08:44:35;;;;;;;4.63;2.10;;;21.10;99.90;;;;;;5070697;28;20180;-67
2021/12/07 08:47:02;;;;;;;5.37;2.43;;;21.10;99.90;;;;;;5064835;28;20649;-68
2021/12/07 08:49:30;;;;;;;4.33;2.23;;;21.10;99.90;;;;;;5067900;28;20645;-68
2021/12/07 08:51:57;;;;;;;6.80;3.97;;;21.10;99.90;;;;;;5068539;28;20190;-69
2021/12/07 08:59:54;;;;;;;8.47;4.60;;;21.10;99.90;;;;;;5067298;28;20703;-69
2021/12/07 09:02:26;;;;;;;6.30;2.97;;;21.00;99.90;;;;;;5066454;28;20644;-69
2021/12/07 09:04:54;;;;;;;5.80;2.77;;;21.00;99.90;;;;;;5067570;28;20317;-70
2021/12/07 09:07:23;;;;;;;3.67;2.20;;;21.00;99.90;;;;;;5067071;28;20563;-69
2021/12/07 09:09:50;;;;;;;3.37;2.30;;;20.90;99.90;;;;;;5067855;28;20526;-69
2021/12/07 09:12:20;;;;;;;4.90;2.67;;;20.80;99.90;;;;;;5066289;28;20187;-69
2021/12/07 09:14:51;;;;;;;7.43;2.70;;;20.80;99.90;;;;;;5049826;28;20194;-69
2021/12/07 09:17:20;;;;;;;4.67;2.57;;;20.80;99.90;;;;;;5069242;28;20615;-67
2021/12/07 09:19:47;;;;;;;8.23;3.10;;;20.80;99.90;;;;;;5069262;28;20226;-68
2021/12/07 09:22:15;;;;;;;5.10;3.13;;;20.70;99.90;;;;;;5071019;28;20190;-67
2021/12/07 09:24:43;;;;;;;7.83;3.00;;;20.70;99.90;;;;;;5069072;28;20176;-68
2021/12/07 09:27:10;;;;;;;6.10;2.77;;;20.70;99.90;;;;;;5068896;28;20202;-68
2021/12/07 09:29:37;;;;;;;5.20;2.63;;;20.70;99.90;;;;;;5066038;28;20261;-68
2021/12/07 09:32:06;;;;;;;4.60;2.67;;;20.70;99.90;;;;;;5069347;28;20188;-67
2021/12/07 09:34:33;;;;;;;4.07;2.40;;;20.70;99.90;;;;;;5063981;28;20184;-67
2021/12/07 09:37:00;;;;;;;5.93;2.67;;;20.80;99.90;;;;;;5066559;28;20214;-68
2021/12/07 09:39:28;;;;;;;5.90;2.70;;;20.80;99.90;;;;;;5069414;28;20219;-67
2021/12/07 09:41:55;;;;;;;5.47;2.60;;;20.70;99.90;;;;;;5069819;28;20183;-68
2021/12/07 09:44:23;;;;;;;4.67;2.30;;;20.70;99.90;;;;;;5067716;28;20194;-68
2021/12/07 09:46:51;;;;;;;5.57;2.50;;;20.70;99.90;;;;;;5068877;28;20180;-68
2021/12/07 09:49:19;;;;;;;5.97;2.80;;;20.70;99.90;;;;;;5066984;28;20232;-68
2021/12/07 09:51:47;;;;;;;9.17;5.63;;;20.70;99.90;;;;;;5064943;28;20187;-68
2021/12/07 09:54:14;;;;;;;8.90;2.93;;;20.70;99.90;;;;;;5069390;28;20215;-67
2021/12/07 09:56:42;;;;;;;6.63;3.00;;;20.60;99.90;;;;;;5069166;28;20175;-69
2021/12/07 09:59:10;;;;;;;15.70;3.50;;;20.60;99.90;;;;;;5068117;28;20243;-66
2021/12/07 10:01:41;;;;;;;7.37;2.70;;;20.50;99.90;;;;;;5067603;28;20183;-66
2021/12/07 10:04:10;;;;;;;6.33;2.60;;;20.50;99.90;;;;;;5065943;28;20191;-70
2021/12/07 10:06:37;;;;;;;3.17;2.20;;;20.50;99.90;;;;;;5065562;28;20187;-69
2021/12/07 10:09:06;;;;;;;4.40;2.70;;;20.40;99.90;;;;;;5069040;28;20226;-67
2021/12/07 10:11:34;;;;;;;6.13;2.77;;;20.40;99.90;;;;;;5073268;28;20179;-67
2021/12/07 10:14:01;;;;;;;11.37;4.00;;;20.40;99.90;;;;;;5069432;28;20273;-67
2021/12/07 10:16:29;;;;;;;5.27;3.03;;;20.40;99.90;;;;;;5068688;28;20191;-68
2021/12/07 10:18:56;;;;;;;5.87;3.10;;;20.40;99.90;;;;;;5064936;28;20210;-67
2021/12/07 10:21:31;;;;;;;6.00;3.10;;;20.40;99.90;;;;;;5067272;28;20218;-67
2021/12/07 10:24:02;;;;;;;4.87;3.40;;;20.40;99.90;;;;;;5064629;28;20187;-67
2021/12/07 10:26:41;;;;;;;6.43;3.47;;;20.30;99.90;;;;;;5065039;28;20223;-68
2021/12/07 10:29:17;;;;;;;4.27;2.87;;;20.40;99.90;;;;;;5067197;28;20175;-69
2021/12/07 10:31:49;;;;;;;7.27;3.27;;;20.30;99.90;;;;;;5069791;28;20244;-68
2021/12/07 10:34:21;;;;;;;4.50;3.10;;;20.30;99.90;;;;;;5070039;28;20532;-68
2021/12/07 10:36:51;;;;;;;3.87;3.40;;;20.30;99.90;;;;;;5070013;28;20218;-67
2021/12/07 10:39:36;;;;;;;7.03;3.23;;;20.30;99.90;;;;;;5065391;28;20608;-66
2021/12/07 10:42:07;;;;;;;4.67;3.10;;;20.30;99.90;;;;;;5068496;28;20656;-67
2021/12/07 10:44:41;;;;;;;8.73;3.37;;;20.20;99.90;;;;;;5069480;28;20187;-68
2021/12/07 10:47:11;;;;;;;5.37;3.80;;;20.20;99.90;;;;;;5069143;28;20703;-68
2021/12/07 10:49:58;;;;;;;11.47;7.90;;;20.30;99.90;;;;;;5067379;28;20712;-67
2021/12/07 10:52:32;;;;;;;7.73;2.63;;;20.20;99.90;;;;;;5066227;28;20215;-67
2021/12/07 10:55:05;;;;;;;5.50;2.43;;;20.20;99.90;;;;;;5048674;28;20236;-68
2021/12/07 10:57:54;;;;;;;5.50;3.27;;;20.20;99.90;;;;;;5067226;28;20680;-67
2021/12/07 11:00:40;;;;;;;4.70;2.50;;;20.10;99.90;;;;;;5068058;28;20227;-67
2021/12/07 11:03:13;;;;;;;4.43;2.70;;;20.10;99.90;;;;;;5069122;28;20191;-67
2021/12/07 11:05:46;;;;;;;4.60;2.80;;;20.00;99.90;;;;;;5070704;28;20245;-67
2021/12/07 11:08:15;;;;;;;8.13;3.50;;;20.00;99.90;;;;;;5067488;28;20195;-67
2021/12/07 11:10:48;;;;;;;7.03;3.00;;;20.10;99.90;;;;;;5071675;28;20196;-67
2021/12/07 11:13:38;;;;;;;4.47;2.40;;;20.10;99.90;;;;;;5073293;28;20179;-67
2021/12/07 11:16:12;;;;;;;8.93;2.50;;;20.10;99.90;;;;;;5073337;28;20209;-70
2021/12/07 11:18:48;;;;;;;9.40;2.60;;;20.10;99.90;;;;;;5070693;28;20689;-68
2021/12/07 11:21:20;;;;;;;8.70;5.73;;;20.10;99.90;;;;;;5071157;28;20604;-66
2021/12/07 11:23:55;;;;;;;12.00;7.67;;;20.10;99.90;;;;;;5067207;28;20191;-66
2021/12/07 11:31:55;;;;;;;3.00;1.90;;;20.10;99.90;;;;;;5070911;28;20210;-68
2021/12/07 11:34:39;;;;;;;5.93;2.10;;;20.10;99.90;;;;;;5064953;28;20187;-67
2021/12/07 11:37:10;;;;;;;4.53;2.17;;;20.10;99.90;;;;;;5072531;28;20195;-68
2021/12/07 11:39:47;;;;;;;9.50;6.57;;;20.10;99.90;;;;;;5072846;28;20211;-69
2021/12/07 11:42:18;;;;;;;10.83;5.90;;;20.10;99.90;;;;;;5065922;28;20191;-67
2021/12/07 11:45:15;;;;;;;4.60;1.97;;;20.10;99.90;;;;;;5068819;28;20244;-67
2021/12/07 11:47:51;;;;;;;3.67;2.00;;;20.10;99.90;;;;;;5066916;28;20180;-67
2021/12/07 11:50:48;;;;;;;7.03;2.63;;;20.10;99.90;;;;;;5066578;28;20257;-68
2021/12/07 11:53:19;;;;;;;3.60;1.70;;;20.10;99.90;;;;;;5070443;28;20202;-69
2021/12/07 11:55:51;;;;;;;3.93;1.70;;;20.10;99.90;;;;;;5070562;28;20191;-70
2021/12/07 11:58:18;;;;;;;7.33;2.13;;;20.10;99.90;;;;;;5068574;28;20195;-67
2021/12/07 12:00:52;;;;;;;7.43;1.80;;;20.10;99.90;;;;;;5070241;28;20179;-71
2021/12/07 12:03:24;;;;;;;5.33;1.93;;;20.20;99.90;;;;;;5068596;28;20648;-70
2021/12/07 12:05:53;;;;;;;12.77;2.53;;;20.20;99.90;;;;;;5071738;28;20179;-69
2021/12/07 12:08:21;;;;;;;5.97;1.50;;;20.20;99.90;;;;;;5064343;28;20179;-70
2021/12/07 12:11:25;;;;;;;5.17;1.87;;;20.10;99.90;;;;;;5069184;28;20217;-67
2021/12/07 12:14:28;;;;;;;2.87;1.93;;;20.20;99.90;;;;;;5068179;28;20203;-67
2021/12/07 12:17:10;;;;;;;7.13;2.40;;;20.10;99.90;;;;;;5067664;28;20218;-67
2021/12/07 12:20:03;;;;;;;5.13;1.63;;;20.10;99.90;;;;;;5067977;28;20745;-67
2021/12/07 12:22:45;;;;;;;9.40;2.20;;;20.10;99.90;;;;;;5058403;28;20191;-67
2021/12/07 12:25:15;;;;;;;5.70;2.20;;;20.00;99.90;;;;;;5069422;28;20617;-67
2021/12/07 12:27:43;;;;;;;5.73;1.70;;;20.00;99.90;;;;;;5069669;28;20199;-69
2021/12/07 12:30:21;;;;;;;5.20;2.10;;;20.00;99.90;;;;;;5071872;28;20665;-70
2021/12/07 12:32:54;;;;;;;3.87;2.20;;;19.90;99.90;;;;;;5068738;28;20190;-70
2021/12/07 12:35:42;;;;;;;5.53;2.00;;;19.90;99.90;;;;;;5069673;28;20182;-67
2021/12/07 12:38:18;;;;;;;3.70;1.90;;;19.90;99.90;;;;;;5068360;28;20194;-67
2021/12/07 12:41:02;;;;;;;4.83;1.87;;;19.90;99.90;;;;;;5068607;28;20195;-67
2021/12/07 12:43:46;;;;;;;3.40;1.70;;;19.90;99.90;;;;;;5069060;28;20579;-67
2021/12/07 12:46:17;;;;;;;4.13;1.40;;;19.90;99.90;;;;;;5071039;28;20206;-67
2021/12/07 12:48:52;;;;;;;2.73;1.57;;;19.90;99.90;;;;;;5069480;28;20542;-67
2021/12/07 12:51:20;;;;;;;3.33;1.77;;;19.90;99.90;;;;;;5069985;28;20198;-67
2021/12/07 12:53:50;;;;;;;5.00;1.77;;;19.90;99.90;;;;;;5069436;28;20227;-67
2021/12/07 12:56:23;;;;;;;4.47;1.70;;;19.90;99.90;;;;;;5067938;28;20616;-67
2021/12/07 12:58:56;;;;;;;6.00;2.00;;;19.90;99.90;;;;;;5065071;28;20272;-67
2021/12/07 13:01:33;;;;;;;6.13;2.07;;;19.90;99.90;;;;;;5070680;28;20198;-67
2021/12/07 13:04:18;;;;;;;4.17;1.70;;;19.80;99.90;;;;;;5068149;28;20194;-68
2021/12/07 13:06:50;;;;;;;6.63;1.90;;;19.80;99.90;;;;;;5069157;28;20179;-67
2021/12/07 13:09:24;;;;;;;4.93;1.70;;;19.70;99.90;;;;;;5070209;28;20518;-67
2021/12/07 13:11:55;;;;;;;4.43;1.70;;;19.80;99.90;;;;;;5066928;28;20214;-67
2021/12/07 13:14:25;;;;;;;3.80;1.70;;;19.70;99.90;;;;;;5068790;28;20187;-67
2021/12/07 13:17:15;;;;;;;3.60;1.50;;;19.80;99.90;;;;;;5069774;28;20229;-68
2021/12/07 13:20:38;;;;;;;6.27;1.80;;;19.80;99.90;;;;;;5066714;28;20225;-67
2021/12/07 13:23:11;;;;;;;6.27;4.87;;;19.80;99.90;;;;;;5020669;28;20224;-67
2021/12/07 13:25:52;;;;;;;5.80;4.73;;;19.80;99.90;;;;;;5062417;28;20199;-67
2021/12/07 13:28:29;;;;;;;6.30;4.53;;;19.80;99.90;;;;;;5066490;28;20175;-67
2021/12/07 13:31:04;;;;;;;7.57;2.37;;;19.80;99.90;;;;;;5069429;28;20249;-67
2021/12/07 13:33:35;;;;;;;3.03;1.80;;;19.80;99.90;;;;;;5074456;28;20299;-67
2021/12/07 13:36:28;;;;;;;4.03;1.70;;;19.80;99.90;;;;;;5064448;28;20232;-66
2021/12/07 13:39:06;;;;;;;2.17;1.43;;;19.70;99.90;;;;;;5064446;28;20222;-67
2021/12/07 13:41:34;;;;;;;5.03;2.10;;;19.70;99.90;;;;;;5065108;28;20213;-67
2021/12/07 13:44:02;;;;;;;2.57;1.77;;;19.70;99.90;;;;;;5068112;28;20551;-67
2021/12/07 13:46:30;;;;;;;6.73;2.20;;;19.70;99.90;;;;;;5067782;28;20546;-67
2021/12/07 13:49:08;;;;;;;3.90;1.80;;;19.70;99.90;;;;;;5067668;28;20191;-68
2021/12/07 13:51:37;;;;;;;2.57;2.10;;;19.60;99.90;;;;;;5070426;28;20709;-67
2021/12/07 13:54:06;;;;;;;6.27;1.90;;;19.60;99.90;;;;;;5067207;28;20222;-68
2021/12/07 13:56:36;;;;;;;6.53;1.70;;;19.60;99.90;;;;;;5070081;28;20187;-67
2021/12/07 13:59:10;;;;;;;2.23;1.80;;;19.60;99.90;;;;;;5066855;28;20274;-67
2021/12/07 14:01:40;;;;;;;4.27;2.03;;;19.60;99.90;;;;;;5066633;28;20290;-68
2021/12/07 14:04:09;;;;;;;3.20;1.77;;;19.50;99.90;;;;;;5067838;28;20255;-67
2021/12/07 14:06:36;;;;;;;2.90;1.80;;;19.50;99.90;;;;;;5069697;28;20664;-66
2021/12/07 14:09:09;;;;;;;3.17;1.90;;;19.50;99.90;;;;;;5069907;28;20187;-67
2021/12/07 14:11:38;;;;;;;3.27;2.03;;;19.50;99.90;;;;;;5065489;28;20199;-67
2021/12/07 14:14:14;;;;;;;4.90;2.10;;;19.40;99.90;;;;;;5070955;28;20226;-67
2021/12/07 14:16:43;;;;;;;5.77;2.33;;;19.50;99.90;;;;;;5069911;28;20175;-67
2021/12/07 14:19:11;;;;;;;3.60;2.07;;;19.40;99.90;;;;;;5065714;28;20202;-67
2021/12/07 14:21:39;;;;;;;7.33;2.37;;;19.50;99.90;;;;;;5070367;28;20281;-67
2021/12/07 14:24:15;;;;;;;8.00;3.13;;;19.50;99.90;;;;;;5069957;28;20187;-67
2021/12/07 14:26:44;;;;;;;4.77;2.73;;;19.50;99.90;;;;;;5067905;28;20198;-67
2021/12/07 14:29:20;;;;;;;5.13;2.40;;;19.40;99.90;;;;;;5067260;28;20181;-68
2021/12/07 14:31:52;;;;;;;4.50;2.40;;;19.40;99.90;;;;;;5068131;28;20952;-67
2021/12/07 14:34:24;;;;;;;5.07;2.20;;;19.50;99.90;;;;;;5070647;28;20266;-67
2021/12/07 14:37:07;;;;;;;6.97;2.20;;;19.50;99.90;;;;;;5068767;28;20186;-67
2021/12/07 14:39:41;;;;;;;5.53;2.70;;;19.50;99.90;;;;;;5067218;28;20207;-68
2021/12/07 14:42:12;;;;;;;4.60;2.37;;;19.50;99.90;;;;;;5073358;28;20195;-67
2021/12/07 14:44:48;;;;;;;7.70;2.77;;;19.50;99.90;;;;;;5071399;28;20176;-69
2021/12/07 14:47:16;;;;;;;5.27;2.70;;;19.50;99.90;;;;;;5073075;28;20228;-69